< < Back
Terminal Aerodrome Forecast


Current Version              Previous Versions:   1  2  3  4  5  6  7  8  9  

Terminal Aerodrome Forecast

456
FTUS42 KCHS 281700
TAFSAV
TAF
KSAV 281728Z 2818/2918 35007KT P6SM SKC
     FM290000 00000KT P6SM SKC=

Latest METAR

385
SAUS80 KWBC 282200
MTRSAV
METAR KSAV 282153Z 31003KT 10SM CLR 11/M04 A3034 RMK AO2 SLP273
T01061039


USA.gov is the U.S. government's official web portal to all federal, state and local government web resources and services.